sensor_id;sensor_type;location;lat;lon;timestamp;pressure;altitude;pressure_sealevel;temperature;humidity
47054;BME280;32811;52.382;5.270;2023-07-22T00:01:21;101411.75;;;13.57;100.00
47054;BME280;32811;52.382;5.270;2023-07-22T00:03:47;101407.41;;;13.53;100.00
47054;BME280;32811;52.382;5.270;2023-07-22T00:06:14;101413.50;;;13.62;100.00
47054;BME280;32811;52.382;5.270;2023-07-22T00:08:41;101420.41;;;13.68;100.00
47054;BME280;32811;52.382;5.270;2023-07-22T00:11:08;101414.38;;;13.69;100.00
47054;BME280;32811;52.382;5.270;2023-07-22T00:13:34;101415.22;;;13.71;100.00
47054;BME280;32811;52.382;5.270;2023-07-22T00:16:01;101416.09;;;13.73;100.00
47054;BME280;32811;52.382;5.270;2023-07-22T00:18:31;101412.63;;;13.68;100.00
47054;BME280;32811;52.382;5.270;2023-07-22T00:20:58;101414.34;;;13.75;100.00
47054;BME280;32811;52.382;5.270;2023-07-22T00:23:25;101411.75;;;13.75;100.00
47054;BME280;32811;52.382;5.270;2023-07-22T00:25:52;101397.94;;;13.72;100.00
47054;BME280;32811;52.382;5.270;2023-07-22T00:28:19;101397.91;;;13.70;100.00
47054;BME280;32811;52.382;5.270;2023-07-22T00:30:45;101408.28;;;13.75;100.00
47054;BME280;32811;52.382;5.270;2023-07-22T00:33:12;101404.84;;;13.77;100.00
47054;BME280;32811;52.382;5.270;2023-07-22T00:35:40;101399.66;;;13.73;100.00
47054;BME280;32811;52.382;5.270;2023-07-22T00:38:07;101402.25;;;13.74;100.00
47054;BME280;32811;52.382;5.270;2023-07-22T00:40:33;101403.13;;;13.76;100.00
47054;BME280;32811;52.382;5.270;2023-07-22T00:43:00;101405.72;;;13.78;100.00
47054;BME280;32811;52.382;5.270;2023-07-22T00:45:26;101393.59;;;13.70;100.00
47054;BME280;32811;52.382;5.270;2023-07-22T00:47:53;101405.69;;;13.75;100.00
47054;BME280;32811;52.382;5.270;2023-07-22T00:50:21;101410.03;;;13.74;100.00
47054;BME280;32811;52.382;5.270;2023-07-22T00:52:48;101403.09;;;13.70;100.00
47054;BME280;32811;52.382;5.270;2023-07-22T00:55:14;101399.66;;;13.68;100.00
47054;BME280;32811;52.382;5.270;2023-07-22T00:57:41;101384.09;;;13.56;100.00
47054;BME280;32811;52.382;5.270;2023-07-22T01:00:08;101391.84;;;13.59;100.00
47054;BME280;32811;52.382;5.270;2023-07-22T01:02:41;101401.38;;;13.58;100.00
47054;BME280;32811;52.382;5.270;2023-07-22T01:05:10;101384.94;;;13.45;100.00
47054;BME280;32811;52.382;5.270;2023-07-22T01:07:38;101397.91;;;13.48;100.00
47054;BME280;32811;52.382;5.270;2023-07-22T01:10:05;101393.56;;;13.50;100.00
47054;BME280;32811;52.382;5.270;2023-07-22T01:12:32;101383.19;;;13.46;100.00
47054;BME280;32811;52.382;5.270;2023-07-22T01:14:59;101380.59;;;13.43;100.00
47054;BME280;32811;52.382;5.270;2023-07-22T01:17:26;101379.75;;;13.45;100.00
47054;BME280;32811;52.382;5.270;2023-07-22T01:19:56;101379.75;;;13.42;100.00
47054;BME280;32811;52.382;5.270;2023-07-22T01:22:23;101386.69;;;13.46;100.00
47054;BME280;32811;52.382;5.270;2023-07-22T01:24:50;101383.19;;;13.43;100.00
47054;BME280;32811;52.382;5.270;2023-07-22T01:27:17;101381.44;;;13.37;100.00
47054;BME280;32811;52.382;5.270;2023-07-22T01:29:43;101378.00;;;13.34;100.00
47054;BME280;32811;52.382;5.270;2023-07-22T01:32:10;101368.47;;;13.28;100.00
47054;BME280;32811;52.382;5.270;2023-07-22T01:34:37;101374.50;;;13.27;100.00
47054;BME280;32811;52.382;5.270;2023-07-22T01:37:03;101377.09;;;13.24;100.00
47054;BME280;32811;52.382;5.270;2023-07-22T01:39:31;101377.09;;;13.22;100.00
47054;BME280;32811;52.382;5.270;2023-07-22T01:41:57;101377.94;;;13.18;100.00
47054;BME280;32811;52.382;5.270;2023-07-22T01:44:24;101376.19;;;13.13;100.00
47054;BME280;32811;52.382;5.270;2023-07-22T01:46:51;101378.78;;;13.11;100.00
47054;BME280;32811;52.382;5.270;2023-07-22T01:49:17;101369.25;;;13.05;100.00
47054;BME280;32811;52.382;5.270;2023-07-22T01:51:44;101366.69;;;13.04;100.00
47054;BME280;32811;52.382;5.270;2023-07-22T01:54:12;101375.31;;;13.06;100.00
47054;BME280;32811;52.382;5.270;2023-07-22T01:56:39;101374.47;;;13.04;100.00
47054;BME280;32811;52.382;5.270;2023-07-22T01:59:06;101366.66;;;13.01;100.00
47054;BME280;32811;52.382;5.270;2023-07-22T02:01:32;101377.88;;;12.98;100.00
47054;BME280;32811;52.382;5.270;2023-07-22T02:03:59;101374.41;;;12.99;100.00
47054;BME280;32811;52.382;5.270;2023-07-22T02:06:27;101372.72;;;13.00;100.00
47054;BME280;32811;52.382;5.270;2023-07-22T02:08:54;101365.78;;;12.96;100.00
47054;BME280;32811;52.382;5.270;2023-07-22T02:11:22;101371.81;;;12.95;100.00
47054;BME280;32811;52.382;5.270;2023-07-22T02:13:49;101371.84;;;12.93;100.00
47054;BME280;32811;52.382;5.270;2023-07-22T02:16:15;101365.78;;;12.91;100.00
47054;BME280;32811;52.382;5.270;2023-07-22T02:18:43;101358.84;;;12.90;100.00
47054;BME280;32811;52.382;5.270;2023-07-22T02:21:09;101358.00;;;12.86;100.00
47054;BME280;32811;52.382;5.270;2023-07-22T02:23:36;101363.16;;;12.85;100.00
47054;BME280;32811;52.382;5.270;2023-07-22T02:26:02;101351.06;;;12.79;100.00
47054;BME280;32811;52.382;5.270;2023-07-22T02:28:32;101357.09;;;12.81;100.00
47054;BME280;32811;52.382;5.270;2023-07-22T02:31:02;101360.56;;;12.80;100.00
47054;BME280;32811;52.382;5.270;2023-07-22T02:33:32;101350.19;;;12.77;100.00
47054;BME280;32811;52.382;5.270;2023-07-22T02:35:59;101350.19;;;12.76;100.00
47054;BME280;32811;52.382;5.270;2023-07-22T02:38:25;101351.91;;;12.75;100.00
47054;BME280;32811;52.382;5.270;2023-07-22T02:40:52;101352.78;;;12.73;100.00
47054;BME280;32811;52.382;5.270;2023-07-22T02:43:18;101348.44;;;12.73;100.00
47054;BME280;32811;52.382;5.270;2023-07-22T02:45:45;101349.34;;;12.80;100.00
47054;BME280;32811;52.382;5.270;2023-07-22T02:48:12;101346.75;;;12.80;100.00
47054;BME280;32811;52.382;5.270;2023-07-22T02:50:38;101345.00;;;12.80;100.00
47054;BME280;32811;52.382;5.270;2023-07-22T02:53:05;101345.03;;;12.90;100.00
47054;BME280;32811;52.382;5.270;2023-07-22T02:55:32;101344.16;;;12.87;100.00
47054;BME280;32811;52.382;5.270;2023-07-22T02:57:58;101343.31;;;12.96;100.00
47054;BME280;32811;52.382;5.270;2023-07-22T03:00:25;101339.03;;;12.95;100.00
47054;BME280;32811;52.382;5.270;2023-07-22T03:02:53;101349.38;;;12.98;100.00
47054;BME280;32811;52.382;5.270;2023-07-22T03:05:20;101347.66;;;12.96;100.00
47054;BME280;32811;52.382;5.270;2023-07-22T03:07:47;101346.78;;;12.95;100.00
47054;BME280;32811;52.382;5.270;2023-07-22T03:10:14;101337.31;;;12.97;100.00
47054;BME280;32811;52.382;5.270;2023-07-22T03:12:41;101343.31;;;12.96;100.00
47054;BME280;32811;52.382;5.270;2023-07-22T03:15:07;101347.66;;;12.96;100.00
47054;BME280;32811;52.382;5.270;2023-07-22T03:17:36;101339.00;;;12.92;100.00
47054;BME280;32811;52.382;5.270;2023-07-22T03:20:03;101344.16;;;12.87;100.00
47054;BME280;32811;52.382;5.270;2023-07-22T03:22:35;101348.50;;;12.87;100.00
47054;BME280;32811;52.382;5.270;2023-07-22T03:25:02;101348.47;;;12.82;100.00
47054;BME280;32811;52.382;5.270;2023-07-22T03:27:28;101339.81;;;12.74;100.00
47054;BME280;32811;52.382;5.270;2023-07-22T03:29:55;101336.38;;;12.75;100.00
47054;BME280;32811;52.382;5.270;2023-07-22T03:32:22;101340.66;;;12.72;100.00
47054;BME280;32811;52.382;5.270;2023-07-22T03:34:48;101339.78;;;12.70;100.00
47054;BME280;32811;52.382;5.270;2023-07-22T03:37:15;101351.03;;;12.72;100.00
47054;BME280;32811;52.382;5.270;2023-07-22T03:39:41;101351.00;;;12.70;100.00
47054;BME280;32811;52.382;5.270;2023-07-22T03:42:08;101352.75;;;12.71;100.00
47054;BME280;32811;52.382;5.270;2023-07-22T03:44:35;101346.72;;;12.71;100.00
47054;BME280;32811;52.382;5.270;2023-07-22T03:47:02;101351.88;;;12.69;100.00
47054;BME280;32811;52.382;5.270;2023-07-22T03:49:29;101347.59;;;12.73;100.00
47054;BME280;32811;52.382;5.270;2023-07-22T03:51:55;101351.06;;;12.79;100.00
47054;BME280;32811;52.382;5.270;2023-07-22T03:54:22;101352.81;;;12.82;100.00
47054;BME280;32811;52.382;5.270;2023-07-22T03:56:49;101352.81;;;12.86;100.00
47054;BME280;32811;52.382;5.270;2023-07-22T03:59:15;101359.75;;;12.91;100.00
47054;BME280;32811;52.382;5.270;2023-07-22T04:01:42;101366.66;;;12.93;100.00
47054;BME280;32811;52.382;5.270;2023-07-22T04:04:09;101351.94;;;12.87;100.00
47054;BME280;32811;52.382;5.270;2023-07-22T04:06:36;101355.44;;;12.96;100.00
47054;BME280;32811;52.382;5.270;2023-07-22T04:09:03;101362.34;;;13.01;100.00
47054;BME280;32811;52.382;5.270;2023-07-22T04:11:29;101361.50;;;13.02;100.00
47054;BME280;32811;52.382;5.270;2023-07-22T04:13:56;101363.22;;;13.05;100.00
47054;BME280;32811;52.382;5.270;2023-07-22T04:16:23;101350.28;;;13.09;100.00
47054;BME280;32811;52.382;5.270;2023-07-22T04:18:49;101352.84;;;13.13;100.00
47054;BME280;32811;52.382;5.270;2023-07-22T04:21:16;101356.34;;;13.18;100.00
47054;BME280;32811;52.382;5.270;2023-07-22T04:23:42;101355.50;;;13.22;100.00
47054;BME280;32811;52.382;5.270;2023-07-22T04:26:09;101347.72;;;13.25;100.00
47054;BME280;32811;52.382;5.270;2023-07-22T04:28:36;101352.94;;;13.31;100.00
47054;BME280;32811;52.382;5.270;2023-07-22T04:31:03;101348.63;;;13.33;100.00
47054;BME280;32811;52.382;5.270;2023-07-22T04:33:30;101344.31;;;13.35;100.00
47054;BME280;32811;52.382;5.270;2023-07-22T04:35:58;101361.59;;;13.42;100.00
47054;BME280;32811;52.382;5.270;2023-07-22T04:38:25;101351.22;;;13.42;100.00
47054;BME280;32811;52.382;5.270;2023-07-22T04:40:52;101353.84;;;13.48;100.00
47054;BME280;32811;52.382;5.270;2023-07-22T04:43:18;101356.41;;;13.55;100.00
47054;BME280;32811;52.382;5.270;2023-07-22T04:45:48;101355.53;;;13.57;100.00
47054;BME280;32811;52.382;5.270;2023-07-22T04:48:16;101354.69;;;13.64;100.00
47054;BME280;32811;52.382;5.270;2023-07-22T04:50:44;101354.69;;;13.66;100.00
47054;BME280;32811;52.382;5.270;2023-07-22T04:53:15;101350.38;;;13.71;100.00
47054;BME280;32811;52.382;5.270;2023-07-22T04:55:42;101352.94;;;13.73;100.00
47054;BME280;32811;52.382;5.270;2023-07-22T04:58:09;101351.22;;;13.84;100.00
47054;BME280;32811;52.382;5.270;2023-07-22T05:00:37;101348.59;;;14.01;100.00
47054;BME280;32811;52.382;5.270;2023-07-22T05:03:04;101337.34;;;14.05;100.00
47054;BME280;32811;52.382;5.270;2023-07-22T05:05:32;101332.09;;;14.22;100.00
47054;BME280;32811;52.382;5.270;2023-07-22T05:07:59;101333.81;;;14.24;100.00
47054;BME280;32811;52.382;5.270;2023-07-22T05:10:25;101339.03;;;14.26;100.00
47054;BME280;32811;52.382;5.270;2023-07-22T05:12:52;101337.31;;;14.23;100.00
47054;BME280;32811;52.382;5.270;2023-07-22T05:15:18;101334.69;;;14.26;100.00
47054;BME280;32811;52.382;5.270;2023-07-22T05:17:45;101345.09;;;14.29;100.00
47054;BME280;32811;52.382;5.270;2023-07-22T05:20:12;101331.25;;;14.27;100.00
47054;BME280;32811;52.382;5.270;2023-07-22T05:22:41;101335.56;;;14.27;100.00
47054;BME280;32811;52.382;5.270;2023-07-22T05:25:08;101343.34;;;14.28;100.00
47054;BME280;32811;52.382;5.270;2023-07-22T05:27:36;101339.00;;;14.30;100.00
47054;BME280;32811;52.382;5.270;2023-07-22T05:30:03;101339.88;;;14.32;100.00
47054;BME280;32811;52.382;5.270;2023-07-22T05:32:36;101347.66;;;14.36;100.00
47054;BME280;32811;52.382;5.270;2023-07-22T05:35:03;101347.66;;;14.36;100.00
47054;BME280;32811;52.382;5.270;2023-07-22T05:37:31;101347.66;;;14.40;100.00
47054;BME280;32811;52.382;5.270;2023-07-22T05:39:59;101351.09;;;14.47;100.00
47054;BME280;32811;52.382;5.270;2023-07-22T05:42:26;101347.59;;;14.54;100.00
47054;BME280;32811;52.382;5.270;2023-07-22T05:44:54;101339.78;;;14.62;100.00
47054;BME280;32811;52.382;5.270;2023-07-22T05:47:22;101338.91;;;14.66;100.00
47054;BME280;32811;52.382;5.270;2023-07-22T05:49:48;101330.22;;;14.73;100.00
47054;BME280;32811;52.382;5.270;2023-07-22T05:52:15;101332.81;;;14.74;100.00
47054;BME280;32811;52.382;5.270;2023-07-22T05:54:42;101341.41;;;14.86;100.00
47054;BME280;32811;52.382;5.270;2023-07-22T05:57:08;101337.94;;;14.90;100.00
47054;BME280;32811;52.382;5.270;2023-07-22T05:59:35;101330.09;;;14.96;100.00
47054;BME280;32811;52.382;5.270;2023-07-22T06:02:07;101337.00;;;15.00;100.00
47054;BME280;32811;52.382;5.270;2023-07-22T06:04:34;101343.94;;;15.00;100.00
47054;BME280;32811;52.382;5.270;2023-07-22T06:07:00;101319.66;;;15.02;100.00
47054;BME280;32811;52.382;5.270;2023-07-22T06:09:27;101331.69;;;15.15;100.00
47054;BME280;32811;52.382;5.270;2023-07-22T06:11:54;101328.19;;;15.24;100.00
47054;BME280;32811;52.382;5.270;2023-07-22T06:14:20;101322.00;;;15.39;100.00
47054;BME280;32811;52.382;5.270;2023-07-22T06:16:47;101333.09;;;15.58;100.00
47054;BME280;32811;52.382;5.270;2023-07-22T06:19:14;101330.38;;;15.78;100.00
47054;BME280;32811;52.382;5.270;2023-07-22T06:21:40;101324.88;;;16.07;100.00
47054;BME280;32811;52.382;5.270;2023-07-22T06:24:07;101325.66;;;16.17;100.00
47054;BME280;32811;52.382;5.270;2023-07-22T06:26:34;101329.13;;;16.16;100.00
47054;BME280;32811;52.382;5.270;2023-07-22T06:29:00;101328.16;;;16.25;100.00
47054;BME280;32811;52.382;5.270;2023-07-22T06:31:27;101309.75;;;16.38;100.00
47054;BME280;32811;52.382;5.270;2023-07-22T06:33:57;101315.69;;;16.51;100.00
47054;BME280;32811;52.382;5.270;2023-07-22T06:36:26;101306.63;;;16.78;100.00
47054;BME280;32811;52.382;5.270;2023-07-22T06:38:54;101309.19;;;16.85;100.00
47054;BME280;32811;52.382;5.270;2023-07-22T06:41:21;101317.63;;;17.04;100.00
47054;BME280;32811;52.382;5.270;2023-07-22T06:43:50;101300.25;;;17.01;100.00
47054;BME280;32811;52.382;5.270;2023-07-22T06:46:17;101303.69;;;17.06;100.00
47054;BME280;32811;52.382;5.270;2023-07-22T06:48:44;101303.63;;;17.09;100.00
47054;BME280;32811;52.382;5.270;2023-07-22T06:51:10;101297.47;;;17.13;100.00
47054;BME280;32811;52.382;5.270;2023-07-22T06:53:37;101298.53;;;17.00;100.00
47054;BME280;32811;52.382;5.270;2023-07-22T06:56:03;101295.19;;;16.92;100.00
47054;BME280;32811;52.382;5.270;2023-07-22T06:58:30;101289.28;;;16.79;100.00
47054;BME280;32811;52.382;5.270;2023-07-22T07:00:57;101299.69;;;16.79;100.00
47054;BME280;32811;52.382;5.270;2023-07-22T07:03:23;101304.94;;;16.74;100.00
47054;BME280;32811;52.382;5.270;2023-07-22T07:05:57;101287.66;;;16.70;100.00
47054;BME280;32811;52.382;5.270;2023-07-22T07:08:24;101306.63;;;16.78;100.00
47054;BME280;32811;52.382;5.270;2023-07-22T07:10:50;101300.53;;;16.84;100.00
47054;BME280;32811;52.382;5.270;2023-07-22T07:13:17;101302.03;;;16.99;100.00
47054;BME280;32811;52.382;5.270;2023-07-22T07:15:46;101293.03;;;17.18;100.00
47054;BME280;32811;52.382;5.270;2023-07-22T07:18:14;101301.59;;;17.28;100.00
47054;BME280;32811;52.382;5.270;2023-07-22T07:20:41;101307.59;;;17.35;100.00
47054;BME280;32811;52.382;5.270;2023-07-22T07:23:08;101303.00;;;17.49;100.00
47054;BME280;32811;52.382;5.270;2023-07-22T07:25:35;101306.38;;;17.54;100.00
47054;BME280;32811;52.382;5.270;2023-07-22T07:28:01;101308.19;;;17.49;100.00
47054;BME280;32811;52.382;5.270;2023-07-22T07:30:28;101305.75;;;17.40;100.00
47054;BME280;32811;52.382;5.270;2023-07-22T07:32:55;101304.13;;;17.33;100.00
47054;BME280;32811;52.382;5.270;2023-07-22T07:35:22;101304.53;;;17.07;100.00
47054;BME280;32811;52.382;5.270;2023-07-22T07:37:48;101307.97;;;17.10;100.00
47054;BME280;32811;52.382;5.270;2023-07-22T07:40:15;101308.75;;;17.14;100.00
47054;BME280;32811;52.382;5.270;2023-07-22T07:42:42;101310.38;;;17.22;100.00
47054;BME280;32811;52.382;5.270;2023-07-22T07:45:08;101304.16;;;17.31;100.00
47054;BME280;32811;52.382;5.270;2023-07-22T07:47:35;101308.63;;;17.23;100.00
47054;BME280;32811;52.382;5.270;2023-07-22T07:50:02;101304.22;;;17.27;100.00
47054;BME280;32811;52.382;5.270;2023-07-22T07:52:29;101308.53;;;17.29;100.00
47054;BME280;32811;52.382;5.270;2023-07-22T07:54:56;101301.53;;;17.31;100.00
47054;BME280;32811;52.382;5.270;2023-07-22T07:57:22;101304.78;;;17.46;100.00
47054;BME280;32811;52.382;5.270;2023-07-22T07:59:49;101298.34;;;17.67;100.00
47054;BME280;32811;52.382;5.270;2023-07-22T08:02:15;101292.63;;;17.94;100.00
47054;BME280;32811;52.382;5.270;2023-07-22T08:04:42;101290.69;;;18.05;100.00
47054;BME280;32811;52.382;5.270;2023-07-22T08:07:09;101287.84;;;18.18;100.00
47054;BME280;32811;52.382;5.270;2023-07-22T08:09:35;101284.19;;;18.25;100.00
47054;BME280;32811;52.382;5.270;2023-07-22T08:12:02;101285.41;;;18.09;100.00
47054;BME280;32811;52.382;5.270;2023-07-22T08:14:29;101279.91;;;18.21;100.00
47054;BME280;32811;52.382;5.270;2023-07-22T08:16:56;101285.34;;;18.12;100.00
47054;BME280;32811;52.382;5.270;2023-07-22T08:19:23;101288.78;;;18.14;100.00
47054;BME280;32811;52.382;5.270;2023-07-22T08:21:49;101282.31;;;18.32;100.00
47054;BME280;32811;52.382;5.270;2023-07-22T08:24:16;101275.22;;;18.38;100.00
47054;BME280;32811;52.382;5.270;2023-07-22T08:26:43;101281.81;;;18.55;100.00
47054;BME280;32811;52.382;5.270;2023-07-22T08:29:09;101276.03;;;18.42;100.00
47054;BME280;32811;52.382;5.270;2023-07-22T08:31:37;101281.31;;;18.37;100.00
47054;BME280;32811;52.382;5.270;2023-07-22T08:34:04;101273.00;;;18.20;100.00
47054;BME280;32811;52.382;5.270;2023-07-22T08:36:30;101285.06;;;18.24;100.00
47054;BME280;32811;52.382;5.270;2023-07-22T08:38:57;101282.63;;;18.18;100.00
47054;BME280;32811;52.382;5.270;2023-07-22T08:41:25;101283.38;;;18.23;100.00
47054;BME280;32811;52.382;5.270;2023-07-22T08:43:54;101283.94;;;18.37;100.00
47054;BME280;32811;52.382;5.270;2023-07-22T08:46:22;101271.66;;;18.42;100.00
47054;BME280;32811;52.382;5.270;2023-07-22T08:48:53;101279.09;;;18.61;100.00
47054;BME280;32811;52.382;5.270;2023-07-22T08:51:21;101270.38;;;19.01;100.00
47054;BME280;32811;52.382;5.270;2023-07-22T08:53:50;101277.59;;;19.60;100.00
47054;BME280;32811;52.382;5.270;2023-07-22T08:56:19;101268.56;;;19.39;100.00
47054;BME280;32811;52.382;5.270;2023-07-22T08:58:48;101269.25;;;19.45;100.00
47054;BME280;32811;52.382;5.270;2023-07-22T09:01:15;101266.69;;;19.44;100.00
47054;BME280;32811;52.382;5.270;2023-07-22T09:03:43;101264.16;;;19.41;100.00
47054;BME280;32811;52.382;5.270;2023-07-22T09:06:10;101263.81;;;19.53;100.00
47054;BME280;32811;52.382;5.270;2023-07-22T09:08:37;101251.41;;;19.60;100.00
47054;BME280;32811;52.382;5.270;2023-07-22T09:11:05;101259.50;;;19.52;100.00
47054;BME280;32811;52.382;5.270;2023-07-22T09:13:33;101261.81;;;19.30;100.00
47054;BME280;32811;52.382;5.270;2023-07-22T09:16:01;101263.78;;;19.20;100.00
47054;BME280;32811;52.382;5.270;2023-07-22T09:18:29;101260.75;;;19.01;100.00
47054;BME280;32811;52.382;5.270;2023-07-22T09:20:55;101256.47;;;18.60;100.00
47054;BME280;32811;52.382;5.270;2023-07-22T09:23:35;101278.81;;;18.33;100.00
47054;BME280;32811;52.382;5.270;2023-07-22T09:26:13;101287.38;;;17.97;100.00
47054;BME280;32811;52.382;5.270;2023-07-22T09:31:14;101292.53;;;17.51;100.00
47054;BME280;32811;52.382;5.270;2023-07-22T09:33:40;101298.94;;;17.30;100.00
47054;BME280;32811;52.382;5.270;2023-07-22T09:36:10;101306.91;;;17.24;100.00
47054;BME280;32811;52.382;5.270;2023-07-22T09:38:37;101296.72;;;17.07;100.00
47054;BME280;32811;52.382;5.270;2023-07-22T09:41:04;101292.47;;;16.99;100.00
47054;BME280;32811;52.382;5.270;2023-07-22T09:43:31;101290.72;;;16.98;100.00
47054;BME280;32811;52.382;5.270;2023-07-22T09:46:09;101293.41;;;16.95;100.00
47054;BME280;32811;52.382;5.270;2023-07-22T09:48:43;101289.25;;;16.80;100.00
47054;BME280;32811;52.382;5.270;2023-07-22T09:51:14;101296.94;;;16.91;100.00
47054;BME280;32811;52.382;5.270;2023-07-22T09:53:59;101291.72;;;16.91;100.00
47054;BME280;32811;52.382;5.270;2023-07-22T09:56:26;101288.28;;;16.88;100.00
47054;BME280;32811;52.382;5.270;2023-07-22T09:58:54;101303.75;;;17.00;100.00
47054;BME280;32811;52.382;5.270;2023-07-22T10:01:23;101304.69;;;16.96;100.00
47054;BME280;32811;52.382;5.270;2023-07-22T10:03:54;101297.72;;;16.98;100.00
47054;BME280;32811;52.382;5.270;2023-07-22T10:06:29;101299.25;;;17.11;100.00
47054;BME280;32811;52.382;5.270;2023-07-22T10:09:01;101295.75;;;17.12;100.00
47054;BME280;32811;52.382;5.270;2023-07-22T10:11:29;101299.16;;;17.16;100.00
47054;BME280;32811;52.382;5.270;2023-07-22T10:13:56;101298.19;;;17.23;100.00
47054;BME280;32811;52.382;5.270;2023-07-22T10:16:23;101310.44;;;17.18;100.00
47054;BME280;32811;52.382;5.270;2023-07-22T10:18:51;101293.97;;;17.14;100.00
47054;BME280;32811;52.382;5.270;2023-07-22T10:21:18;101286.97;;;17.19;100.00
47054;BME280;32811;52.382;5.270;2023-07-22T10:23:47;101292.09;;;17.24;100.00
47054;BME280;32811;52.382;5.270;2023-07-22T10:26:18;101296.47;;;17.24;100.00
47054;BME280;32811;52.382;5.270;2023-07-22T10:29:06;101299.16;;;17.17;100.00
47054;BME280;32811;52.382;5.270;2023-07-22T10:31:34;101288.75;;;17.16;100.00
47054;BME280;32811;52.382;5.270;2023-07-22T10:34:00;101292.28;;;17.12;100.00
47054;BME280;32811;52.382;5.270;2023-07-22T10:36:30;101288.34;;;16.85;100.00
47054;BME280;32811;52.382;5.270;2023-07-22T10:38:58;101292.63;;;16.89;100.00
47054;BME280;32811;52.382;5.270;2023-07-22T10:41:29;101283.97;;;16.87;100.00
47054;BME280;32811;52.382;5.270;2023-07-22T10:43:58;101287.41;;;16.89;100.00
47054;BME280;32811;52.382;5.270;2023-07-22T10:46:36;101300.50;;;16.86;100.00
47054;BME280;32811;52.382;5.270;2023-07-22T10:49:13;101302.38;;;16.73;100.00
47054;BME280;32811;52.382;5.270;2023-07-22T10:51:40;101325.00;;;16.71;100.00
47054;BME280;32811;52.382;5.270;2023-07-22T10:54:11;101324.28;;;16.61;100.00
47054;BME280;32811;52.382;5.270;2023-07-22T10:56:44;101319.13;;;16.55;100.00
47054;BME280;32811;52.382;5.270;2023-07-22T10:59:11;101330.59;;;16.40;100.00
47054;BME280;32811;52.382;5.270;2023-07-22T11:01:43;101331.63;;;16.25;100.00
47054;BME280;32811;52.382;5.270;2023-07-22T11:14:41;101323.25;;;15.95;100.00
47054;BME280;32811;52.382;5.270;2023-07-22T11:17:11;101322.34;;;16.00;100.00
47054;BME280;32811;52.382;5.270;2023-07-22T11:19:38;101311.94;;;16.01;100.00
47054;BME280;32811;52.382;5.270;2023-07-22T11:22:05;101309.38;;;15.96;100.00
47054;BME280;32811;52.382;5.270;2023-07-22T11:24:33;101310.94;;;16.14;100.00
47054;BME280;32811;52.382;5.270;2023-07-22T11:27:05;101307.41;;;16.17;100.00
47054;BME280;32811;52.382;5.270;2023-07-22T11:29:32;101302.00;;;16.35;100.00
47054;BME280;32811;52.382;5.270;2023-07-22T11:31:59;101298.97;;;16.68;100.00
47054;BME280;32811;52.382;5.270;2023-07-22T11:34:26;101284.78;;;16.90;100.00
47054;BME280;32811;52.382;5.270;2023-07-22T11:36:54;101291.34;;;17.16;100.00
47054;BME280;32811;52.382;5.270;2023-07-22T11:39:25;101284.47;;;17.63;100.00
47054;BME280;32811;52.382;5.270;2023-07-22T11:41:52;101276.31;;;17.83;100.00
47054;BME280;32811;52.382;5.270;2023-07-22T11:44:26;101271.75;;;17.94;100.00
47054;BME280;32811;52.382;5.270;2023-07-22T11:46:59;101265.59;;;17.97;100.00
47054;BME280;32811;52.382;5.270;2023-07-22T11:49:37;101273.66;;;18.28;100.00
47054;BME280;32811;52.382;5.270;2023-07-22T11:52:11;101262.44;;;18.65;100.00
47054;BME280;32811;52.382;5.270;2023-07-22T11:54:42;101259.69;;;18.71;100.00
47054;BME280;32811;52.382;5.270;2023-07-22T11:57:10;101266.44;;;18.83;100.00
47054;BME280;32811;52.382;5.270;2023-07-22T11:59:39;101263.69;;;18.87;100.00
47054;BME280;32811;52.382;5.270;2023-07-22T12:02:06;101246.06;;;18.96;100.00
47054;BME280;32811;52.382;5.270;2023-07-22T12:04:33;101253.56;;;19.11;100.00
47054;BME280;32811;52.382;5.270;2023-07-22T12:07:03;101250.53;;;19.26;100.00
47054;BME280;32811;52.382;5.270;2023-07-22T12:09:30;101235.50;;;19.35;100.00
47054;BME280;32811;52.382;5.270;2023-07-22T12:11:59;101250.66;;;19.56;100.00
47054;BME280;32811;52.382;5.270;2023-07-22T12:14:34;101251.63;;;19.52;100.00
47054;BME280;32811;52.382;5.270;2023-07-22T12:17:01;101239.09;;;19.65;100.00
47054;BME280;32811;52.382;5.270;2023-07-22T12:19:28;101225.28;;;19.91;100.00
47054;BME280;32811;52.382;5.270;2023-07-22T12:21:56;101238.91;;;19.73;100.00
47054;BME280;32811;52.382;5.270;2023-07-22T12:24:23;101247.53;;;19.76;100.00
47054;BME280;32811;52.382;5.270;2023-07-22T12:26:49;101239.59;;;19.79;100.00
47054;BME280;32811;52.382;5.270;2023-07-22T12:29:16;101244.38;;;19.62;100.00
47054;BME280;32811;52.382;5.270;2023-07-22T12:31:43;101244.41;;;19.29;100.00
47054;BME280;32811;52.382;5.270;2023-07-22T12:34:09;101246.44;;;19.16;100.00
47054;BME280;32811;52.382;5.270;2023-07-22T12:36:36;101246.84;;;18.99;100.00
47054;BME280;32811;52.382;5.270;2023-07-22T12:39:02;101246.38;;;19.18;100.00
47054;BME280;32811;52.382;5.270;2023-07-22T12:41:29;101258.22;;;19.34;100.00
47054;BME280;32811;52.382;5.270;2023-07-22T12:43:56;101254.22;;;19.19;100.00
47054;BME280;32811;52.382;5.270;2023-07-22T12:46:22;101247.44;;;19.11;100.00
47054;BME280;32811;52.382;5.270;2023-07-22T12:48:49;101241.69;;;18.96;100.00
47054;BME280;32811;52.382;5.270;2023-07-22T12:51:15;101248.25;;;19.13;100.00
47054;BME280;32811;52.382;5.270;2023-07-22T12:53:42;101243.69;;;19.22;100.00
47054;BME280;32811;52.382;5.270;2023-07-22T12:56:09;101248.59;;;19.35;100.00